Frankfort, MI

6:16 PM EST on December 25, 2014 (GMT -0500)
Wexford County | Change Station
CLOSE
Current Station
Airport
Location: Cadillac,
Elevation: 1306 ft
Nearby Weather Stations

Elev 1306 ft 44.28 °N, 85.42 °W | Updated 21 minutes ago

Overcast
Overcast
32 °F
Feels Like 22 °F
N
13
Wind Variable Wind from SSW

Today
High -- | Low -- °F
--% Chance of Precip.
Yesterday
High -- | Low -- °F
Precip. -- in
8:20 AM 5:09 PM
Waxing Crescent, 20% visible
Pressure 29.91 in
Visibility 10.0 miles
Clouds Overcast 1400 ft
Windchill 22 °F
Dew Point 29 °F
Humidity 89%
Rainfall 0.00 in
Snow Depth Not available.
UV 0 out of 12
Pollen .10 out of 12
Air Quality Not available.
Flu Activity Not available.
METAR KCAD 252255Z AUTO 21011KT 10SM OVC014 00/M01 A2991 RMK AO2 T00001016

More Conditions Fewer Conditions

Pressure 29.91 in
Visibility 10.0 miles
Clouds Overcast 1400 ft
Windchill 22 °F
Dew Point 29 °F
Humidity 89%
Rainfall 0.00 in
Snow Depth Not available.
UV 0 out of 12
Pollen .10 out of 12
Air Quality Not available.
Flu Activity Not available.
METAR KCAD 252255Z AUTO 21011KT 10SM OVC014 00/M01 A2991 RMK AO2 T00001016

More Conditions Fewer Conditions

Nowcast | as of 6:00 PM EST on December 25, 2014

At 7 PM...cloudy. Chance of flurries. Temperature 37. Southwest winds 16 mph. At 9 PM...mostly cloudy. Chance of flurries. Temperature 38. Southwest winds 14 mph. At 11 PM...mostly cloudy. Temperature 38. Southwest winds 14 mph. At 1 am...mostly cloudy. Temperature 38. Southwest winds 13 mph.

×

10-Day Weather Forecast

Almanac

Astronomy

Dec. 25, 2014 Rise Set
Actual Time
Civil Twilight
Nautical Twilight
Astronomical Twilight
Moon
Length of Visible Light
Length of Day
Tomorrow will be .
, % of the Moon is Illuminated

Today's Extremes

State Highs State Lows

Community

WunderPhotos

Upload Photos

1,780,440 photos uploaded!

WunderBlogs® & News

Nearby

Air Quality

  Air Quality AQ Index Pollutant
Not available.

Snow Depth

Station Depth Elevation

Earthquake Activity

City Distance Mag. Time & Date
Minimum magnitude displayed is 2.5.

Coastal Water Temperatures

Place Temperature

Nearby Weather Stations